Onatchiway, Canada
Current Conditions -  °F | °C
As of 9:00 PM on Sunday 23 Nov 2014 (Local Time) from CYBG Reporting Station
Overcast Overcast  
Wind Chill: 23°   Ceiling: 3500
Heat Index: 32°   Visibility: 25mi
Dew Point: 28°   Wind: 12mph
Humidity: 87%   Direction: 90°E
Pressure: 30"   Gusts: NA
Location:  48.88°N, 71.02°W
Report Text: CYBG 240200Z 09010KT 25SM OVC035 M00/M02 A3000 RMK SC8 SLP169
Loading
Personal Weather Stations






























Interactive Weather Map New forecast layout! Learn more

10-Day Weather Forecast

Advertisements
Track Severe Weather on mobile